Time;durP1;ratioP1;P1;durP2;ratioP2;P2;SDS_P1;SDS_P2;PMS_P1;PMS_P2;Temp;Humidity;BMP_temperature;BMP_pressure;BME280_temperature;BME280_humidity;BME280_pressure;Samples;Min_cycle;Max_cycle;Signal;HPM_P1;HPM_P2
2024/01/23 00:01:22;;;;;;;;;;;;;;;-0.93;68.19;95583.69;5069518;28;19990;-80
2024/01/23 00:03:47;;;;;;;;;;;;;;;-0.53;66.91;95560.88;5068758;28;20320;-79
2024/01/23 00:06:12;;;;;;;;;;;;;;;-0.61;67.56;95554.41;5073444;28;19929;-80
2024/01/23 00:08:38;;;;;;;;;;;;;;;-0.43;66.44;95554.88;5067789;28;19924;-82
2024/01/23 00:11:03;;;;;;;;;;;;;;;-0.47;66.72;95561.28;5061793;28;20021;-80
2024/01/23 00:13:28;;;;;;;;;;;;;;;-0.78;67.98;95550.38;5051280;28;19920;-78
2024/01/23 00:15:54;;;;;;;;;;;;;;;-0.28;66.74;95557.31;5059893;28;19956;-78
2024/01/23 00:18:19;;;;;;;;;;;;;;;-0.39;66.67;95563.34;5079664;28;19958;-78
2024/01/23 00:20:46;;;;;;;;;;;;;;;-0.56;66.85;95567.16;5082273;28;19934;-79
2024/01/23 00:23:12;;;;;;;;;;;;;;;-0.54;67.80;95559.22;5081214;28;20446;-79
2024/01/23 00:25:37;;;;;;;;;;;;;;;-0.02;65.60;95564.22;5069448;28;19928;-79
2024/01/23 00:28:03;;;;;;;;;;;;;;;-0.08;65.79;95570.75;5085873;28;19919;-78
2024/01/23 00:30:28;;;;;;;;;;;;;;;-0.65;67.55;95567.84;5065995;28;19924;-78
2024/01/23 00:32:54;;;;;;;;;;;;;;;-0.70;68.05;95562.94;5043216;28;19927;-78
2024/01/23 00:35:19;;;;;;;;;;;;;;;-1.02;69.76;95555.53;5067533;28;19997;-79
2024/01/23 00:37:44;;;;;;;;;;;;;;;-0.75;68.76;95565.84;5068090;28;20012;-79
2024/01/23 00:40:10;;;;;;;;;;;;;;;-0.20;66.68;95577.72;5073064;28;19928;-78
2024/01/23 00:42:35;;;;;;;;;;;;;;;-0.41;67.19;95574.88;5075310;28;20030;-78
2024/01/23 00:45:01;;;;;;;;;;;;;;;-0.25;67.30;95571.97;5074141;28;19970;-78
2024/01/23 00:47:26;;;;;;;;;;;;;;;-0.40;66.89;95571.31;5073298;28;19917;-78
2024/01/23 00:49:51;;;;;;;;;;;;;;;-0.46;67.25;95573.44;5072288;28;20133;-78
2024/01/23 00:52:16;;;;;;;;;;;;;;;-0.41;66.94;95585.34;5063710;28;20392;-78
2024/01/23 00:54:42;;;;;;;;;;;;;;;-0.54;67.03;95588.00;5079033;28;19931;-79
2024/01/23 00:57:07;;;;;;;;;;;;;;;-0.92;69.01;95594.97;5073184;28;20147;-80
2024/01/23 00:59:32;;;;;;;;;;;;;;;-1.41;70.65;95605.19;5069939;28;20020;-78
2024/01/23 01:01:58;;;;;;;;;;;;;;;-1.31;70.69;95606.25;5068943;28;20424;-78
2024/01/23 01:04:23;;;;;;;;;;;;;;;-1.24;70.70;95598.81;5050550;28;19971;-78
2024/01/23 01:06:48;;;;;;;;;;;;;;;-1.28;71.37;95587.75;5069038;28;20600;-78
2024/01/23 01:09:13;;;;;;;;;;;;;;;-0.91;70.07;95594.88;5047140;28;19950;-78
2024/01/23 01:11:39;;;;;;;;;;;;;;;-0.98;70.64;95607.47;5078521;28;19924;-78
2024/01/23 01:14:04;;;;;;;;;;;;;;;-0.87;68.85;95611.16;5078203;28;20204;-78
2024/01/23 01:16:29;;;;;;;;;;;;;;;-1.12;70.55;95612.84;5059484;28;19931;-78
2024/01/23 01:18:55;;;;;;;;;;;;;;;-0.99;69.93;95620.66;5080134;28;19924;-79
2024/01/23 01:21:20;;;;;;;;;;;;;;;-1.05;70.08;95614.06;5070144;28;19968;-78
2024/01/23 01:23:45;;;;;;;;;;;;;;;-0.86;69.59;95615.44;5069546;28;19931;-78
2024/01/23 01:26:10;;;;;;;;;;;;;;;-0.75;68.63;95619.94;5074777;28;19920;-78
2024/01/23 01:28:36;;;;;;;;;;;;;;;-1.02;69.61;95626.13;5051082;28;20044;-79
2024/01/23 01:31:01;;;;;;;;;;;;;;;-0.64;67.83;95612.16;5074346;28;20134;-79
2024/01/23 01:33:26;;;;;;;;;;;;;;;-0.67;68.56;95629.84;5056905;28;20751;-78
2024/01/23 01:35:52;;;;;;;;;;;;;;;-0.70;68.92;95642.19;5075087;28;19924;-78
2024/01/23 01:38:18;;;;;;;;;;;;;;;-0.91;69.70;95647.16;5070841;28;20553;-78
2024/01/23 01:40:43;;;;;;;;;;;;;;;-0.98;69.78;95651.09;5075210;28;20635;-78
2024/01/23 01:43:25;;;;;;;;;;;;;;;-1.96;73.20;95660.94;5057328;28;19978;-78
2024/01/23 01:45:54;;;;;;;;;;;;;;;-2.07;73.28;95669.44;5071158;28;20133;-76
2024/01/23 01:48:19;;;;;;;;;;;;;;;-1.94;72.73;95664.28;5052534;28;20335;-78
2024/01/23 01:50:45;;;;;;;;;;;;;;;-2.45;74.71;95690.97;5055507;28;20427;-77
2024/01/23 01:53:11;;;;;;;;;;;;;;;-2.27;74.33;95668.94;5049995;28;19968;-77
2024/01/23 01:55:37;;;;;;;;;;;;;;;-2.44;74.52;95671.78;5038813;28;20042;-78
2024/01/23 01:58:02;;;;;;;;;;;;;;;-2.40;74.51;95674.09;5049974;28;20273;-77
2024/01/23 02:00:28;;;;;;;;;;;;;;;-2.50;74.91;95683.41;5062429;28;19928;-77
2024/01/23 02:02:53;;;;;;;;;;;;;;;-2.42;76.31;95693.38;5067695;28;20297;-77
2024/01/23 02:05:18;;;;;;;;;;;;;;;-2.34;76.00;95688.53;5069090;28;20053;-77
2024/01/23 02:07:43;;;;;;;;;;;;;;;-2.47;77.49;95692.81;5053124;28;19953;-77
2024/01/23 02:10:09;;;;;;;;;;;;;;;-2.40;77.71;95708.00;5070792;28;19979;-77
2024/01/23 02:12:34;;;;;;;;;;;;;;;-2.59;80.82;95700.47;5065422;28;19920;-77
2024/01/23 02:14:59;;;;;;;;;;;;;;;-3.36;82.97;95726.72;5054426;28;19968;-75
2024/01/23 02:17:24;;;;;;;;;;;;;;;-3.81;87.34;95756.06;5059468;28;20216;-76
2024/01/23 02:19:50;;;;;;;;;;;;;;;-3.94;89.51;95756.75;5069872;28;20184;-74
2024/01/23 02:22:16;;;;;;;;;;;;;;;-4.13;90.64;95748.28;5070882;28;22298;-75
2024/01/23 02:24:41;;;;;;;;;;;;;;;-4.20;91.60;95758.19;5051208;28;19924;-75
2024/01/23 02:27:06;;;;;;;;;;;;;;;-3.82;90.11;95746.59;5069379;28;20081;-75
2024/01/23 02:29:32;;;;;;;;;;;;;;;-3.91;89.96;95747.94;5068700;28;20484;-76
2024/01/23 02:31:57;;;;;;;;;;;;;;;-4.02;90.53;95750.28;5065775;28;20297;-76
2024/01/23 02:34:24;;;;;;;;;;;;;;;-4.22;91.43;95773.00;5067095;28;20444;-78
2024/01/23 02:36:49;;;;;;;;;;;;;;;-4.08;92.09;95788.72;5067864;28;19920;-78
2024/01/23 02:39:15;;;;;;;;;;;;;;;-4.24;92.51;95793.91;5072929;28;20073;-77
2024/01/23 02:41:40;;;;;;;;;;;;;;;-4.04;92.36;95766.81;5045794;28;20394;-78
2024/01/23 02:44:05;;;;;;;;;;;;;;;-3.93;91.95;95768.81;5049688;28;19924;-78
2024/01/23 02:46:30;;;;;;;;;;;;;;;-3.72;90.39;95778.16;5068119;28;19928;-76
2024/01/23 02:48:56;;;;;;;;;;;;;;;-3.50;89.78;95782.16;5071987;28;19974;-78
2024/01/23 02:51:21;;;;;;;;;;;;;;;-3.57;91.04;95786.88;5070765;28;20271;-75
2024/01/23 02:53:46;;;;;;;;;;;;;;;-3.73;90.49;95766.91;5067277;28;20036;-78
2024/01/23 02:56:12;;;;;;;;;;;;;;;-3.67;90.76;95789.16;5068650;28;20298;-77
2024/01/23 02:58:38;;;;;;;;;;;;;;;-3.73;90.76;95811.16;5052108;28;20035;-78
2024/01/23 03:01:03;;;;;;;;;;;;;;;-3.50;89.57;95803.00;5050694;28;20386;-77
2024/01/23 03:03:29;;;;;;;;;;;;;;;-3.28;89.22;95798.25;5068264;28;19952;-78
2024/01/23 03:05:54;;;;;;;;;;;;;;;-3.22;88.24;95807.50;5072012;28;20054;-79
2024/01/23 03:08:22;;;;;;;;;;;;;;;-3.30;87.91;95812.28;5066326;28;19978;-77
2024/01/23 03:10:47;;;;;;;;;;;;;;;-3.19;86.58;95817.72;5068985;28;20300;-78
2024/01/23 03:13:12;;;;;;;;;;;;;;;-3.35;86.87;95819.50;5051185;28;19924;-78
2024/01/23 03:15:38;;;;;;;;;;;;;;;-3.24;86.89;95818.91;5068470;28;19971;-78
2024/01/23 03:18:03;;;;;;;;;;;;;;;-3.14;86.93;95805.28;5067259;28;20174;-77
2024/01/23 03:20:30;;;;;;;;;;;;;;;-3.29;85.37;95827.81;5063179;28;19943;-78
2024/01/23 03:22:56;;;;;;;;;;;;;;;-3.28;86.37;95820.84;5065211;28;19927;-77
2024/01/23 03:25:21;;;;;;;;;;;;;;;-3.28;85.85;95837.31;5069926;28;20440;-79
2024/01/23 03:27:46;;;;;;;;;;;;;;;-3.31;84.57;95844.47;5051529;28;19927;-78
2024/01/23 03:30:26;;;;;;;;;;;;;;;-3.35;84.23;95872.44;5065647;28;19925;-78
2024/01/23 03:32:51;;;;;;;;;;;;;;;-3.34;84.49;95849.84;5050118;28;19987;-78
2024/01/23 03:35:16;;;;;;;;;;;;;;;-3.33;83.78;95857.56;5066857;28;20022;-77
2024/01/23 03:37:42;;;;;;;;;;;;;;;-3.19;82.56;95848.16;5051835;28;19972;-78
2024/01/23 03:40:07;;;;;;;;;;;;;;;-3.33;82.55;95882.78;5067778;28;19924;-79
2024/01/23 03:42:33;;;;;;;;;;;;;;;-3.63;84.41;95881.78;5068113;28;20315;-79
2024/01/23 03:44:58;;;;;;;;;;;;;;;-3.43;83.00;95857.22;5065411;28;20206;-78
2024/01/23 03:47:23;;;;;;;;;;;;;;;-3.10;82.31;95870.22;5062190;28;19917;-77
2024/01/23 03:49:49;;;;;;;;;;;;;;;-2.95;81.28;95860.72;5063275;28;19924;-79
2024/01/23 03:52:14;;;;;;;;;;;;;;;-3.04;81.07;95873.34;5069201;28;20370;-79
2024/01/23 03:54:39;;;;;;;;;;;;;;;-2.92;80.50;95868.34;5065068;28;19931;-78
2024/01/23 03:57:04;;;;;;;;;;;;;;;-2.98;80.37;95887.78;5063530;28;20214;-78
2024/01/23 03:59:30;;;;;;;;;;;;;;;-2.91;79.98;95893.47;5067379;28;19932;-78
2024/01/23 04:01:55;;;;;;;;;;;;;;;-3.02;79.43;95902.72;5062381;28;19963;-78
2024/01/23 04:04:21;;;;;;;;;;;;;;;-3.03;78.42;95902.81;5062498;28;20333;-78
2024/01/23 04:06:47;;;;;;;;;;;;;;;-2.91;78.60;95909.97;5066906;28;19990;-78
2024/01/23 04:09:12;;;;;;;;;;;;;;;-2.99;79.27;95911.31;5058642;28;19978;-78
2024/01/23 04:11:37;;;;;;;;;;;;;;;-2.59;76.92;95918.63;5062993;28;19947;-77
2024/01/23 04:14:02;;;;;;;;;;;;;;;-2.61;75.82;95921.34;5064640;28;19932;-78
2024/01/23 04:16:28;;;;;;;;;;;;;;;-2.68;77.40;95906.97;5061363;28;20177;-79
2024/01/23 04:18:56;;;;;;;;;;;;;;;-2.84;76.79;95923.47;5044288;28;20418;-79
2024/01/23 04:21:22;;;;;;;;;;;;;;;-2.66;75.91;95939.00;5067537;28;19928;-79
2024/01/23 04:23:47;;;;;;;;;;;;;;;-2.71;77.16;95926.25;5050811;28;19924;-79
2024/01/23 04:26:13;;;;;;;;;;;;;;;-2.96;77.57;95942.41;5068422;28;19957;-79
2024/01/23 04:28:39;;;;;;;;;;;;;;;-3.25;77.93;95957.88;5072889;28;20342;-79
2024/01/23 04:31:04;;;;;;;;;;;;;;;-3.19;77.63;95952.34;5053865;28;19955;-77
2024/01/23 04:33:29;;;;;;;;;;;;;;;-3.17;77.66;95971.31;5067106;28;19935;-78
2024/01/23 04:35:54;;;;;;;;;;;;;;;-3.06;77.60;95955.94;5065923;28;20358;-78
2024/01/23 04:38:20;;;;;;;;;;;;;;;-2.63;75.39;95954.47;5073318;28;19932;-79
2024/01/23 04:40:45;;;;;;;;;;;;;;;-2.69;76.07;95950.44;5047113;28;20132;-79
2024/01/23 04:43:10;;;;;;;;;;;;;;;-2.81;75.33;95958.94;5049291;28;20382;-78
2024/01/23 04:45:35;;;;;;;;;;;;;;;-2.79;76.39;95967.50;5048001;28;19956;-78
2024/01/23 04:48:01;;;;;;;;;;;;;;;-2.65;75.59;95977.19;5069518;28;20075;-78
2024/01/23 04:50:26;;;;;;;;;;;;;;;-2.88;76.39;95966.28;5070799;28;19961;-78
2024/01/23 04:52:56;;;;;;;;;;;;;;;-3.04;76.90;95972.34;5051661;28;20514;-78
2024/01/23 04:55:21;;;;;;;;;;;;;;;-2.71;74.92;95967.09;5059052;28;20470;-78
2024/01/23 04:57:46;;;;;;;;;;;;;;;-2.92;79.92;95986.44;5062365;28;19925;-78
2024/01/23 05:00:12;;;;;;;;;;;;;;;-2.90;79.92;96010.66;5056241;28;19956;-78
2024/01/23 05:02:38;;;;;;;;;;;;;;;-3.01;81.53;96015.63;5059661;28;19928;-78
2024/01/23 05:05:03;;;;;;;;;;;;;;;-3.38;84.29;96015.81;5060340;28;20023;-77
2024/01/23 05:07:29;;;;;;;;;;;;;;;-3.22;83.17;96015.88;5060575;28;20030;-78
2024/01/23 05:09:54;;;;;;;;;;;;;;;-3.38;85.09;96028.84;5060300;28;19920;-79
2024/01/23 05:12:19;;;;;;;;;;;;;;;-3.33;85.17;96026.84;5036606;28;19959;-79
2024/01/23 05:14:44;;;;;;;;;;;;;;;-3.45;86.74;96032.69;5064855;28;20509;-77
2024/01/23 05:17:10;;;;;;;;;;;;;;;-3.20;85.86;96040.06;5054113;28;19924;-77
2024/01/23 05:19:35;;;;;;;;;;;;;;;-3.10;84.52;96039.53;5058580;28;20081;-78
2024/01/23 05:22:00;;;;;;;;;;;;;;;-3.01;84.31;96059.91;5040117;28;19936;-78
2024/01/23 05:24:27;;;;;;;;;;;;;;;-3.09;84.21;96062.09;5043903;28;20389;-79
2024/01/23 05:26:52;;;;;;;;;;;;;;;-3.12;83.44;96057.91;5056474;28;20126;-78
2024/01/23 05:29:17;;;;;;;;;;;;;;;-3.08;82.58;96069.84;5056264;28;19924;-77
2024/01/23 05:31:43;;;;;;;;;;;;;;;-3.39;84.16;96079.25;5066059;28;19923;-77
2024/01/23 05:34:08;;;;;;;;;;;;;;;-3.38;84.09;96075.72;5057284;28;20028;-78
2024/01/23 05:36:33;;;;;;;;;;;;;;;-3.14;81.27;96077.97;5059600;28;19982;-78
2024/01/23 05:38:59;;;;;;;;;;;;;;;-3.28;83.28;96094.31;5060761;28;19924;-77
2024/01/23 05:41:24;;;;;;;;;;;;;;;-3.34;82.23;96089.41;5061860;28;20342;-78
2024/01/23 05:43:50;;;;;;;;;;;;;;;-3.14;82.17;96093.59;5045604;28;19928;-78
2024/01/23 05:46:15;;;;;;;;;;;;;;;-3.05;80.85;96089.66;5064532;28;19964;-78
2024/01/23 05:48:40;;;;;;;;;;;;;;;-2.94;80.26;96110.78;5061318;28;19924;-78
2024/01/23 05:51:06;;;;;;;;;;;;;;;-3.33;81.23;96107.56;5071859;28;19964;-78
2024/01/23 05:53:31;;;;;;;;;;;;;;;-3.28;81.62;96113.41;5051554;28;19963;-78
2024/01/23 05:55:56;;;;;;;;;;;;;;;-3.31;81.94;96123.97;5068605;28;20609;-78
2024/01/23 05:58:21;;;;;;;;;;;;;;;-2.91;78.75;96128.88;5070599;28;19931;-78
2024/01/23 06:00:47;;;;;;;;;;;;;;;-3.20;80.35;96131.22;5072005;28;19931;-71
2024/01/23 06:03:12;;;;;;;;;;;;;;;-3.20;80.28;96131.22;5080110;28;20412;-71
2024/01/23 06:05:37;;;;;;;;;;;;;;;-3.72;82.58;96160.72;5079487;28;20046;-71
2024/01/23 06:08:03;;;;;;;;;;;;;;;-3.88;82.31;96155.44;5064548;28;19963;-70
2024/01/23 06:10:28;;;;;;;;;;;;;;;-3.83;82.16;96146.50;5070910;28;19924;-71
2024/01/23 06:12:54;;;;;;;;;;;;;;;-3.92;82.62;96141.72;5063369;28;20361;-71
2024/01/23 06:15:19;;;;;;;;;;;;;;;-3.65;82.07;96149.09;5076378;28;20122;-71
2024/01/23 06:17:45;;;;;;;;;;;;;;;-3.63;80.58;96152.47;5051850;28;20262;-71
2024/01/23 06:20:12;;;;;;;;;;;;;;;-3.63;80.91;96162.03;5071386;28;19958;-71
2024/01/23 06:22:38;;;;;;;;;;;;;;;-3.85;82.43;96161.34;5072536;28;20001;-71
2024/01/23 06:25:03;;;;;;;;;;;;;;;-3.84;81.82;96185.59;5054171;28;20405;-71
2024/01/23 06:27:29;;;;;;;;;;;;;;;-3.64;81.23;96182.00;5080676;28;19920;-71
2024/01/23 06:29:54;;;;;;;;;;;;;;;-3.56;80.15;96176.44;5079060;28;19924;-71
2024/01/23 06:32:19;;;;;;;;;;;;;;;-3.54;80.20;96185.00;5070381;28;19990;-71
2024/01/23 06:34:44;;;;;;;;;;;;;;;-3.55;80.29;96189.38;5077357;28;20144;-71
2024/01/23 06:37:10;;;;;;;;;;;;;;;-3.85;81.34;96202.97;5067183;28;19939;-71
2024/01/23 06:39:35;;;;;;;;;;;;;;;-3.61;80.76;96200.09;5065393;28;19923;-71
2024/01/23 06:42:00;;;;;;;;;;;;;;;-3.60;79.80;96203.53;5082877;28;20527;-72
2024/01/23 06:44:25;;;;;;;;;;;;;;;-3.69;80.59;96204.81;5063493;28;19955;-71
2024/01/23 06:46:51;;;;;;;;;;;;;;;-3.60;79.68;96198.34;5078362;28;19931;-70
2024/01/23 06:49:16;;;;;;;;;;;;;;;-3.47;79.49;96207.22;5080205;28;20198;-71
2024/01/23 06:51:41;;;;;;;;;;;;;;;-3.46;78.68;96226.28;5075234;28;19967;-72
2024/01/23 06:54:07;;;;;;;;;;;;;;;-3.49;79.64;96203.88;5068284;28;19998;-71
2024/01/23 06:56:33;;;;;;;;;;;;;;;-3.65;79.28;96216.78;5059943;28;19955;-71
2024/01/23 06:58:58;;;;;;;;;;;;;;;-3.50;78.35;96209.97;5073491;28;19969;-79
2024/01/23 07:01:24;;;;;;;;;;;;;;;-3.42;78.17;96212.22;5059932;28;19927;-80
2024/01/23 07:03:49;;;;;;;;;;;;;;;-3.26;76.68;96209.66;5066931;28;19924;-80
2024/01/23 07:06:14;;;;;;;;;;;;;;;-2.97;76.64;96227.34;5050103;28;20011;-80
2024/01/23 07:08:40;;;;;;;;;;;;;;;-3.47;77.51;96240.25;5065951;28;20005;-79
2024/01/23 07:11:05;;;;;;;;;;;;;;;-3.27;77.49;96239.25;5044629;28;20270;-78
2024/01/23 07:13:30;;;;;;;;;;;;;;;-2.99;76.06;96231.81;5060943;28;19936;-77
2024/01/23 07:15:55;;;;;;;;;;;;;;;-2.90;75.92;96228.72;5069842;28;19916;-78
2024/01/23 07:18:21;;;;;;;;;;;;;;;-3.19;76.28;96238.88;5040482;28;20019;-78
2024/01/23 07:20:46;;;;;;;;;;;;;;;-3.36;76.77;96252.72;5068835;28;20466;-78
2024/01/23 07:23:12;;;;;;;;;;;;;;;-2.91;75.35;96250.50;5043834;28;20019;-77
2024/01/23 07:25:37;;;;;;;;;;;;;;;-2.99;75.25;96244.84;5049301;28;20178;-77
2024/01/23 07:28:03;;;;;;;;;;;;;;;-2.91;75.73;96260.94;5066138;28;20151;-77
2024/01/23 07:30:28;;;;;;;;;;;;;;;-2.85;75.38;96267.59;5043787;28;19977;-79
2024/01/23 07:32:54;;;;;;;;;;;;;;;-2.44;73.01;96271.59;5048263;28;19924;-77
2024/01/23 07:35:19;;;;;;;;;;;;;;;-2.73;74.15;96281.75;5076050;28;20385;-61
2024/01/23 07:37:44;;;;;;;;;;;;;;;-3.34;76.80;96277.78;5086340;28;19965;-62
2024/01/23 07:40:10;;;;;;;;;;;;;;;-3.19;76.84;96280.56;5069112;28;19985;-62
2024/01/23 07:42:36;;;;;;;;;;;;;;;-3.42;77.49;96274.69;5069375;28;19915;-62
2024/01/23 07:45:05;;;;;;;;;;;;;;;-3.23;77.23;96266.81;5058903;28;20146;-61
2024/01/23 07:47:30;;;;;;;;;;;;;;;-3.36;77.44;96284.81;5070722;28;20455;-61
2024/01/23 07:49:55;;;;;;;;;;;;;;;-3.23;76.92;96279.03;5069306;28;19956;-61
2024/01/23 07:52:21;;;;;;;;;;;;;;;-3.65;77.47;96279.25;5054415;28;19952;-60
2024/01/23 07:54:47;;;;;;;;;;;;;;;-3.38;77.41;96281.44;5069992;28;19924;-60
2024/01/23 07:57:12;;;;;;;;;;;;;;;-3.22;76.71;96291.13;5058097;28;19999;-61
2024/01/23 07:59:39;;;;;;;;;;;;;;;-3.11;75.64;96298.41;5078583;28;19955;-61
2024/01/23 08:02:04;;;;;;;;;;;;;;;-3.15;75.98;96298.53;5081092;28;19923;-61
2024/01/23 08:04:29;;;;;;;;;;;;;;;-2.90;75.57;96299.94;5068726;28;19966;-62
2024/01/23 08:06:55;;;;;;;;;;;;;;;-3.12;75.95;96305.38;5065334;28;19920;-61
2024/01/23 08:09:20;;;;;;;;;;;;;;;-2.96;74.29;96307.22;5064015;28;19928;-62
2024/01/23 08:11:45;;;;;;;;;;;;;;;-2.75;74.66;96308.75;5055903;28;19966;-61
2024/01/23 08:14:10;;;;;;;;;;;;;;;-2.77;73.86;96310.59;5061814;28;19975;-63
2024/01/23 08:16:36;;;;;;;;;;;;;;;-2.72;73.52;96320.78;5056329;28;20220;-61
2024/01/23 08:19:02;;;;;;;;;;;;;;;-2.98;74.38;96314.28;5065964;28;19971;-62
2024/01/23 08:21:28;;;;;;;;;;;;;;;-3.27;75.28;96319.97;5063833;28;19928;-65
2024/01/23 08:23:53;;;;;;;;;;;;;;;-3.21;75.23;96324.06;5066361;28;19916;-64
2024/01/23 08:26:18;;;;;;;;;;;;;;;-3.19;75.80;96325.66;5057106;28;19975;-64
2024/01/23 08:28:43;;;;;;;;;;;;;;;-3.41;76.23;96337.13;5058032;28;19982;-63
2024/01/23 08:31:09;;;;;;;;;;;;;;;-3.37;75.73;96337.00;5077830;28;20005;-64
2024/01/23 08:33:34;;;;;;;;;;;;;;;-3.34;76.75;96329.00;5063666;28;20499;-65
2024/01/23 08:36:01;;;;;;;;;;;;;;;-2.91;74.12;96339.97;5070515;28;20001;-65
2024/01/23 08:38:26;;;;;;;;;;;;;;;-3.30;75.33;96335.75;5060457;28;19977;-65
2024/01/23 08:40:51;;;;;;;;;;;;;;;-2.80;73.70;96347.25;5072664;28;20419;-64
2024/01/23 08:43:17;;;;;;;;;;;;;;;-2.71;73.18;96348.56;5069779;28;19971;-64
2024/01/23 08:45:43;;;;;;;;;;;;;;;-2.88;73.91;96365.84;5058217;28;20343;-64
2024/01/23 08:48:08;;;;;;;;;;;;;;;-2.86;73.18;96375.38;5049445;28;19920;-63
2024/01/23 08:50:34;;;;;;;;;;;;;;;-3.40;75.59;96374.41;5073256;28;20271;-64
2024/01/23 08:52:59;;;;;;;;;;;;;;;-3.18;74.77;96368.19;5062701;28;19968;-65
2024/01/23 08:55:24;;;;;;;;;;;;;;;-3.29;75.14;96376.53;5060380;28;19928;-64
2024/01/23 08:57:50;;;;;;;;;;;;;;;-3.06;74.96;96370.19;5072463;28;20332;-65
2024/01/23 09:00:16;;;;;;;;;;;;;;;-2.75;73.81;96373.09;5072324;28;19924;-64
2024/01/23 09:02:41;;;;;;;;;;;;;;;-2.99;73.96;96375.97;5079149;28;20405;-63
2024/01/23 09:05:07;;;;;;;;;;;;;;;-2.87;73.53;96384.94;5085206;28;20188;-64
2024/01/23 09:07:32;;;;;;;;;;;;;;;-2.75;72.89;96381.75;5070211;28;19916;-65
2024/01/23 09:09:57;;;;;;;;;;;;;;;-2.87;73.61;96387.56;5063907;28;20176;-65
2024/01/23 09:12:22;;;;;;;;;;;;;;;-2.90;73.94;96380.75;5061613;28;22862;-64
2024/01/23 09:14:48;;;;;;;;;;;;;;;-2.72;73.43;96385.13;5074107;28;19985;-64
2024/01/23 09:17:13;;;;;;;;;;;;;;;-2.76;73.62;96387.88;5069344;28;20590;-65
2024/01/23 09:19:39;;;;;;;;;;;;;;;-2.39;72.25;96386.94;5086480;28;20092;-64
2024/01/23 09:22:04;;;;;;;;;;;;;;;-2.75;73.36;96373.09;5076571;28;20016;-64
2024/01/23 09:24:30;;;;;;;;;;;;;;;-2.69;72.55;96403.19;5075325;28;20493;-63
2024/01/23 09:26:59;;;;;;;;;;;;;;;-3.13;73.84;96381.84;5064540;28;19932;-64
2024/01/23 09:29:25;;;;;;;;;;;;;;;-2.66;73.34;96382.19;5070305;28;19924;-65
2024/01/23 09:31:50;;;;;;;;;;;;;;;-2.78;72.69;96386.28;5076537;28;19920;-65
2024/01/23 09:34:15;;;;;;;;;;;;;;;-2.48;72.45;96385.63;5067348;28;19928;-64
2024/01/23 09:36:40;;;;;;;;;;;;;;;-2.12;70.58;96396.91;5075133;28;19958;-64
2024/01/23 09:39:06;;;;;;;;;;;;;;;-2.35;70.80;96398.91;5086348;28;20103;-65
2024/01/23 09:41:34;;;;;;;;;;;;;;;-1.89;69.46;96402.69;5065240;28;19928;-64
2024/01/23 09:44:00;;;;;;;;;;;;;;;-1.69;68.70;96404.25;5075394;28;19993;-64
2024/01/23 09:46:25;;;;;;;;;;;;;;;-1.94;68.09;96418.56;5077817;28;20182;-65
2024/01/23 09:48:51;;;;;;;;;;;;;;;-1.68;67.84;96408.53;5086515;28;20014;-64
2024/01/23 09:51:17;;;;;;;;;;;;;;;-1.91;68.71;96414.97;5078808;28;20220;-63
2024/01/23 09:53:43;;;;;;;;;;;;;;;-1.55;67.02;96411.34;5082854;28;19935;-65
2024/01/23 09:56:09;;;;;;;;;;;;;;;-1.89;68.15;96413.13;5063341;28;19985;-65
2024/01/23 09:58:35;;;;;;;;;;;;;;;-2.05;69.07;96429.59;5048729;28;19915;-64
2024/01/23 10:01:00;;;;;;;;;;;;;;;-2.08;69.00;96429.75;5072940;28;20450;-64
2024/01/23 10:03:26;;;;;;;;;;;;;;;-2.26;69.61;96408.03;5071574;28;19924;-64
2024/01/23 10:05:51;;;;;;;;;;;;;;;-1.94;68.26;96410.75;5055937;28;20212;-64
2024/01/23 10:08:17;;;;;;;;;;;;;;;-1.73;67.03;96414.00;5064992;28;20393;-63
2024/01/23 10:10:42;;;;;;;;;;;;;;;-1.52;67.27;96415.56;5084524;28;20003;-64
2024/01/23 10:13:09;;;;;;;;;;;;;;;-1.27;65.97;96419.44;5054721;28;20016;-64
2024/01/23 10:15:34;;;;;;;;;;;;;;;-1.05;64.70;96421.69;5057928;28;20388;-64
2024/01/23 10:18:00;;;;;;;;;;;;;;;-1.34;65.03;96435.47;5075825;28;19924;-65
2024/01/23 10:20:26;;;;;;;;;;;;;;;-1.32;65.13;96442.38;5075138;28;20389;-65
2024/01/23 10:22:52;;;;;;;;;;;;;;;-1.24;65.41;96453.25;5080012;28;20318;-64
2024/01/23 10:25:20;;;;;;;;;;;;;;;-0.81;63.47;96437.00;5073878;28;19931;-63
2024/01/23 10:27:52;;;;;;;;;;;;;;;0.03;61.07;96437.41;5072339;28;20002;-65
2024/01/23 10:30:17;;;;;;;;;;;;;;;-0.40;61.51;96439.94;5061911;28;20637;-64
2024/01/23 10:32:43;;;;;;;;;;;;;;;0.62;58.98;96448.78;5061670;28;20129;-64
2024/01/23 10:35:10;;;;;;;;;;;;;;;0.69;58.30;96449.22;5075995;28;20027;-65
2024/01/23 10:37:36;;;;;;;;;;;;;;;0.62;58.22;96442.69;5073933;28;19928;-64
2024/01/23 10:40:01;;;;;;;;;;;;;;;1.09;57.17;96446.69;5062003;28;20360;-65
2024/01/23 10:42:26;;;;;;;;;;;;;;;0.34;58.68;96453.06;5064936;28;20036;-64
2024/01/23 10:44:51;;;;;;;;;;;;;;;1.41;55.66;96470.97;5072902;28;19928;-64
2024/01/23 10:47:18;;;;;;;;;;;;;;;1.49;55.91;96468.69;5074440;28;19951;-64
2024/01/23 10:49:43;;;;;;;;;;;;;;;1.70;55.51;96470.91;5075458;28;20427;-64
2024/01/23 10:52:09;;;;;;;;;;;;;;;1.93;53.27;96461.47;5057450;28;19990;-64
2024/01/23 10:54:36;;;;;;;;;;;;;;;1.70;55.09;96476.16;5063099;28;20672;-64
2024/01/23 10:57:04;;;;;;;;;;;;;;;1.12;56.63;96477.13;5039349;28;19924;-66
2024/01/23 10:59:29;;;;;;;;;;;;;;;1.17;56.31;96480.34;5045340;28;19920;-64
2024/01/23 11:02:06;;;;;;;;;;;;;;;1.30;56.83;96475.13;5067514;28;20586;-64
2024/01/23 11:04:32;;;;;;;;;;;;;;;0.57;57.02;96470.00;5040628;28;20558;-64
2024/01/23 11:06:58;;;;;;;;;;;;;;;0.57;59.04;96464.78;5069945;28;20150;-64
2024/01/23 11:09:25;;;;;;;;;;;;;;;1.61;55.43;96481.03;5044377;28;19959;-64
2024/01/23 11:11:51;;;;;;;;;;;;;;;1.27;55.92;96475.34;5047893;28;20605;-64
2024/01/23 11:14:24;;;;;;;;;;;;;;;0.55;57.59;96495.47;5065942;28;19928;-64
2024/01/23 11:17:02;;;;;;;;;;;;;;;0.11;58.60;96489.34;5053984;28;19956;-63
2024/01/23 11:19:27;;;;;;;;;;;;;;;0.14;58.36;96477.84;5068274;28;20011;-64
2024/01/23 11:22:05;;;;;;;;;;;;;;;1.19;56.23;96490.72;5060467;28;20015;-64
2024/01/23 11:24:39;;;;;;;;;;;;;;;0.80;57.26;96491.34;5065205;28;19925;-64
2024/01/23 11:27:05;;;;;;;;;;;;;;;0.90;57.57;96475.88;5057663;28;19966;-65
2024/01/23 11:29:30;;;;;;;;;;;;;;;1.62;54.37;96482.75;5064208;28;20021;-66
2024/01/23 11:31:56;;;;;;;;;;;;;;;1.44;56.31;96471.63;5039513;28;20376;-64
2024/01/23 11:34:21;;;;;;;;;;;;;;;1.84;54.92;96456.84;5037599;28;20285;-65
2024/01/23 11:36:46;;;;;;;;;;;;;;;2.07;53.97;96454.44;5064846;28;19931;-65
2024/01/23 11:39:14;;;;;;;;;;;;;;;1.22;56.24;96456.41;5069824;28;19996;-64
2024/01/23 11:41:39;;;;;;;;;;;;;;;1.26;55.65;96460.50;5064747;28;19967;-65
2024/01/23 11:44:04;;;;;;;;;;;;;;;1.18;56.05;96478.53;5066815;28;20384;-64
2024/01/23 11:46:30;;;;;;;;;;;;;;;1.52;55.96;96446.63;5074522;28;19916;-64
2024/01/23 11:48:55;;;;;;;;;;;;;;;2.42;53.63;96453.00;5087535;28;19928;-80
2024/01/23 11:51:21;;;;;;;;;;;;;;;2.95;51.12;96460.69;5063443;28;19926;-80
2024/01/23 11:53:46;;;;;;;;;;;;;;;2.94;49.62;96458.16;5063435;28;19935;-80
2024/01/23 11:56:12;;;;;;;;;;;;;;;2.98;50.17;96467.53;5072505;28;19987;-79
2024/01/23 11:58:38;;;;;;;;;;;;;;;2.36;50.50;96468.25;5050456;28;19943;-79
2024/01/23 12:01:03;;;;;;;;;;;;;;;2.74;49.94;96468.31;5084112;28;19924;-80
2024/01/23 12:03:29;;;;;;;;;;;;;;;2.00;52.43;96454.03;5076112;28;19927;-68
2024/01/23 12:05:54;;;;;;;;;;;;;;;1.42;53.82;96442.00;5075900;28;19923;-68
2024/01/23 12:08:20;;;;;;;;;;;;;;;1.69;53.02;96445.56;5078309;28;19973;-67
2024/01/23 12:10:45;;;;;;;;;;;;;;;1.15;54.32;96455.97;5082050;28;19926;-67
2024/01/23 12:13:10;;;;;;;;;;;;;;;0.11;58.05;96457.94;5079721;28;20407;-68
2024/01/23 12:15:35;;;;;;;;;;;;;;;1.35;55.28;96448.59;5073982;28;19923;-67
2024/01/23 12:18:01;;;;;;;;;;;;;;;2.06;52.58;96444.88;5074596;28;19955;-67
2024/01/23 12:20:26;;;;;;;;;;;;;;;2.59;52.35;96443.94;5066751;28;19935;-68
2024/01/23 12:22:51;;;;;;;;;;;;;;;2.65;52.79;96431.19;5079933;28;19927;-66
2024/01/23 12:25:17;;;;;;;;;;;;;;;2.54;51.90;96444.25;5078455;28;19923;-69
2024/01/23 12:27:42;;;;;;;;;;;;;;;3.03;50.60;96439.13;5061751;28;19977;-67
2024/01/23 12:30:14;;;;;;;;;;;;;;;3.08;49.49;96439.63;5067392;28;19925;-67
2024/01/23 12:32:39;;;;;;;;;;;;;;;2.85;48.61;96430.72;5061586;28;20460;-76
2024/01/23 12:35:10;;;;;;;;;;;;;;;3.72;47.73;96418.38;5062435;28;19920;-76
2024/01/23 12:37:38;;;;;;;;;;;;;;;3.83;46.82;96436.84;5065667;28;20558;-76
2024/01/23 12:40:09;;;;;;;;;;;;;;;3.44;47.03;96447.59;5051704;28;19919;-75